createdAt,value
2023-05-23T00:03:14.273Z,54.7
2023-05-23T00:08:17.610Z,54.6
2023-05-23T00:13:17.764Z,54.7
2023-05-23T00:18:18.088Z,54.8
2023-05-23T00:23:18.570Z,54.7
2023-05-23T00:28:19.180Z,54.6
2023-05-23T00:33:22.446Z,54.7
2023-05-23T00:38:21.976Z,54.6
2023-05-23T00:43:22.777Z,54.8
2023-05-23T00:48:23.225Z,54.6
2023-05-23T00:53:26.670Z,54.6
2023-05-23T00:58:26.932Z,54.7
2023-05-23T01:03:30.510Z,54.6
2023-05-23T01:08:30.350Z,54.7
2023-05-23T01:13:33.530Z,54.6
2023-05-23T01:18:37.838Z,54.8
2023-05-23T01:23:37.771Z,54.5
2023-05-23T01:28:41.137Z,54.6
2023-05-23T01:33:43.911Z,54.7
2023-05-23T01:38:46.604Z,54.6
2023-05-23T01:43:51.099Z,54.7
2023-05-23T01:48:53.761Z,54.7
2023-05-23T01:53:53.734Z,54.5
2023-05-23T01:58:54.189Z,54.6
2023-05-23T02:03:54.679Z,54.6
2023-05-23T02:08:57.879Z,54.7
2023-05-23T02:13:58.193Z,54.6
2023-05-23T02:18:58.618Z,54.5
2023-05-23T02:23:59.242Z,54.5
2023-05-23T02:29:07.139Z,54.5
2023-05-23T02:34:06.591Z,54.4
2023-05-23T02:39:07.140Z,54.4
2023-05-23T02:44:07.752Z,54.4
2023-05-23T02:49:08.308Z,54.3
2023-05-23T02:54:12.416Z,54.4
2023-05-23T02:59:13.189Z,54.2
2023-05-23T03:04:13.605Z,54.3
2023-05-23T03:09:16.858Z,54.4
2023-05-23T03:14:16.695Z,54.3
2023-05-23T03:19:17.322Z,54.1
2023-05-23T03:24:17.553Z,54
2023-05-23T03:29:18.010Z,54.1
2023-05-23T03:34:19.491Z,54
2023-05-23T03:39:19.816Z,54
2023-05-23T03:44:23.278Z,53.9
2023-05-23T03:49:26.108Z,53.9
2023-05-23T03:54:25.951Z,54.3
2023-05-23T03:59:26.293Z,54.3
2023-05-23T04:04:26.706Z,54.2
2023-05-23T04:09:28.014Z,54.2
2023-05-23T04:14:31.252Z,54.4
2023-05-23T04:19:31.141Z,54.4
2023-05-23T04:24:34.521Z,54.4
2023-05-23T04:29:34.429Z,54.4
2023-05-23T04:34:34.866Z,54.4
2023-05-23T04:39:35.384Z,54.5
2023-05-23T04:44:36.146Z,54.5
2023-05-23T04:49:36.406Z,54.6
2023-05-23T04:54:37.879Z,54.6
2023-05-23T04:59:38.227Z,54.7
2023-05-23T05:04:43.088Z,54.7
2023-05-23T05:09:42.871Z,54.7
2023-05-23T05:14:43.107Z,54.8
2023-05-23T05:19:43.551Z,54.8
2023-05-23T05:24:44.184Z,54.9
2023-05-23T05:29:45.354Z,54.8
2023-05-23T05:34:47.801Z,54.6
2023-05-23T05:39:46.299Z,54.6
2023-05-23T05:44:49.518Z,54.6
2023-05-23T05:49:52.341Z,54.6
2023-05-23T05:54:54.927Z,54.6
2023-05-23T05:59:57.676Z,54.5
2023-05-23T06:04:58.258Z,54.6
2023-05-23T06:09:58.742Z,54.6
2023-05-23T06:14:59.151Z,54.7
2023-05-23T06:20:02.585Z,54.7
2023-05-23T06:25:05.425Z,54.8
2023-05-23T06:30:05.938Z,54.8
2023-05-23T06:35:06.376Z,54.8
2023-05-23T06:40:09.790Z,55
2023-05-23T06:45:09.638Z,55.1
2023-05-23T06:50:12.836Z,55.1
2023-05-23T06:55:14.037Z,55.2
2023-05-23T07:00:14.107Z,55.2
2023-05-23T07:05:14.715Z,55.3
2023-05-23T07:10:15.157Z,55.2
2023-05-23T07:15:18.640Z,55.3
2023-05-23T07:20:18.602Z,55.3
2023-05-23T07:25:19.241Z,55.3
2023-05-23T07:30:19.853Z,55.4
2023-05-23T07:35:20.399Z,55.4
2023-05-23T07:40:20.954Z,55.5
2023-05-23T07:45:21.449Z,55.5
2023-05-23T07:50:24.692Z,55.6
2023-05-23T07:55:24.478Z,55.6
2023-05-23T08:00:25.135Z,55.6
2023-05-23T08:05:29.435Z,55.7
2023-05-23T08:10:32.088Z,55.9
2023-05-23T08:15:32.030Z,56.1
2023-05-23T08:20:35.267Z,56.1
2023-05-23T08:25:38.012Z,56.2
2023-05-23T08:30:38.129Z,56.3
2023-05-23T08:35:38.327Z,56.3
2023-05-23T08:40:41.542Z,56.4
2023-05-23T08:45:44.231Z,56.4
2023-05-23T08:50:44.980Z,56.4
2023-05-23T08:55:46.108Z,56.4
2023-05-23T09:00:46.555Z,56.4
2023-05-23T09:05:46.997Z,56.4
2023-05-23T09:10:47.453Z,56.4
2023-05-23T09:15:48.092Z,56.4
2023-05-23T09:20:48.573Z,56.5
2023-05-23T09:25:49.271Z,56.5
2023-05-23T09:30:52.775Z,56.4
2023-05-23T09:35:53.733Z,56.2
2023-05-23T09:40:54.713Z,56.1
2023-05-23T09:45:55.063Z,56.1
2023-05-23T09:50:56.197Z,55.9
2023-05-23T09:55:59.326Z,56.1
2023-05-23T10:01:02.186Z,56.1
2023-05-23T10:06:02.133Z,56.1
2023-05-23T10:11:02.608Z,56
2023-05-23T10:16:03.197Z,56
2023-05-23T10:21:03.727Z,55.8
2023-05-23T10:26:04.143Z,55.9
2023-05-23T10:31:04.697Z,55.9
2023-05-23T10:36:05.144Z,56
2023-05-23T10:41:05.710Z,56.1
2023-05-23T10:46:06.289Z,56.1
2023-05-23T10:51:06.870Z,56
2023-05-23T10:56:07.455Z,56.1
2023-05-23T11:01:08.386Z,56.1
2023-05-23T11:06:08.569Z,55.9
2023-05-23T11:11:11.764Z,55.7
2023-05-23T11:16:14.477Z,55.6
2023-05-23T11:21:14.589Z,55.5
2023-05-23T11:26:17.612Z,55.3
2023-05-23T11:31:17.776Z,55.4
2023-05-23T11:36:19.228Z,55.2
2023-05-23T11:41:22.243Z,55.1
2023-05-23T11:46:25.082Z,54.8
2023-05-23T11:51:24.980Z,54.5
2023-05-23T11:56:28.137Z,54.6
2023-05-23T12:01:28.427Z,54.6
2023-05-23T12:06:28.945Z,54.5
2023-05-23T12:11:29.600Z,54.5
2023-05-23T12:16:30.255Z,54.4
2023-05-23T12:21:32.556Z,54.4
2023-05-23T12:26:44.713Z,54.7
2023-05-23T12:31:43.674Z,54.8
2023-05-23T12:36:48.910Z,54.6
2023-05-23T12:41:47.118Z,54.3
2023-05-23T12:46:47.228Z,54.4
2023-05-23T12:51:47.754Z,54.5
2023-05-23T12:56:48.405Z,54.6
2023-05-23T13:01:48.993Z,54.7
2023-05-23T13:06:49.519Z,54.8
2023-05-23T13:11:50.090Z,54.7
2023-05-23T13:16:51.048Z,54.3
2023-05-23T13:21:51.603Z,54.2
2023-05-23T13:26:52.080Z,54.3
2023-05-23T13:31:53.526Z,54.5
2023-05-23T13:36:56.552Z,54.6
2023-05-23T13:41:56.786Z,54.5
2023-05-23T13:46:57.190Z,54.6
2023-05-23T13:52:00.559Z,54.7
2023-05-23T13:57:00.652Z,54.7
2023-05-23T14:02:01.116Z,54.3
2023-05-23T14:07:02.503Z,54.1
2023-05-23T14:12:03.127Z,54.6
2023-05-23T14:17:03.631Z,54.1
2023-05-23T14:22:04.214Z,54.4
2023-05-23T14:27:04.853Z,54.6
2023-05-23T14:32:05.352Z,54.6
2023-05-23T14:37:08.653Z,54.8
2023-05-23T14:42:11.592Z,54.9
2023-05-23T14:47:11.545Z,54.5
2023-05-23T14:52:12.527Z,54.1
2023-05-23T14:57:12.890Z,54.3
2023-05-23T15:02:13.754Z,54.7
2023-05-23T15:07:16.890Z,54.7
2023-05-23T15:12:17.339Z,53.9
2023-05-23T15:17:17.782Z,54.5
2023-05-23T15:22:34.014Z,54.8
2023-05-23T15:27:30.205Z,54.9
2023-05-23T15:32:29.227Z,54.7
2023-05-23T15:37:29.340Z,54.7
2023-05-23T15:42:29.707Z,55
2023-05-23T15:47:30.952Z,54.3
2023-05-23T15:52:31.380Z,54.1
2023-05-23T15:57:31.935Z,54.7
2023-05-23T16:02:32.721Z,54.9
2023-05-23T16:07:33.289Z,54.8
2023-05-23T16:12:34.464Z,54.9
2023-05-23T16:17:35.014Z,54.9
2023-05-23T16:22:38.306Z,54.9
2023-05-23T16:27:39.335Z,54.9
2023-05-23T16:32:39.620Z,54.8
2023-05-23T16:37:40.176Z,54.9
2023-05-23T16:42:40.725Z,55
2023-05-23T16:47:51.148Z,55.3
2023-05-23T16:52:52.853Z,55.2
2023-05-23T16:57:53.109Z,55
2023-05-23T17:02:53.519Z,54.7
2023-05-23T17:07:53.689Z,54.9
2023-05-23T17:12:54.168Z,55.1
2023-05-23T17:17:54.759Z,55.1
2023-05-23T17:22:59.680Z,55.2
2023-05-23T17:27:59.397Z,55.3
2023-05-23T17:33:02.541Z,55.3
2023-05-23T17:38:04.376Z,55.5
2023-05-23T17:43:07.387Z,55.5
2023-05-23T17:48:07.337Z,55.5
2023-05-23T17:53:08.224Z,55.6
2023-05-23T17:58:08.424Z,55.7
2023-05-23T18:03:11.167Z,55.7
2023-05-23T18:08:11.582Z,55.9
2023-05-23T18:13:14.858Z,56
2023-05-23T18:18:14.713Z,56.1
2023-05-23T18:23:15.424Z,56.2
2023-05-23T18:28:15.752Z,56.3
2023-05-23T18:33:16.291Z,56.3
2023-05-23T18:38:18.665Z,56.2
2023-05-23T18:43:18.888Z,56.1
2023-05-23T18:48:23.724Z,56.1
2023-05-23T18:53:23.539Z,56.1
2023-05-23T18:58:23.903Z,56.2
2023-05-23T19:03:24.459Z,56.2
2023-05-23T19:08:24.884Z,56.3
2023-05-23T19:13:25.424Z,56.2
2023-05-23T19:18:26.128Z,56.5
2023-05-23T19:23:26.817Z,56.3
2023-05-23T19:28:28.263Z,56.5
2023-05-23T19:33:28.543Z,56.6
2023-05-23T19:38:29.039Z,56.6
2023-05-23T19:43:29.357Z,56.3
2023-05-23T19:48:32.567Z,56.7
2023-05-23T19:53:33.238Z,56.6
2023-05-23T19:58:34.351Z,56.6
2023-05-23T20:03:37.508Z,56.5
2023-05-23T20:08:37.561Z,56.1
2023-05-23T20:13:40.770Z,56.2
2023-05-23T20:18:40.817Z,56.3
2023-05-23T20:23:42.474Z,56.4
2023-05-23T20:28:42.730Z,56.3
2023-05-23T20:33:43.194Z,56.2
2023-05-23T20:38:43.698Z,56.2
2023-05-23T20:43:53.037Z,56.2
2023-05-23T20:48:52.278Z,56.1
2023-05-23T20:53:52.686Z,56.1
2023-05-23T20:58:53.078Z,56
2023-05-23T21:03:56.360Z,55.8
2023-05-23T21:08:59.160Z,55.8
2023-05-23T21:14:01.862Z,56
2023-05-23T21:19:01.860Z,56
2023-05-23T21:24:02.263Z,55.9
2023-05-23T21:29:12.928Z,55.9
2023-05-23T21:34:23.011Z,55.9
2023-05-23T21:39:14.683Z,55.8
2023-05-23T21:44:14.536Z,55.5
2023-05-23T21:49:15.964Z,55
2023-05-23T21:54:20.000Z,55.1
2023-05-23T21:59:20.013Z,55.3
2023-05-23T22:04:20.677Z,55.5
2023-05-23T22:09:21.106Z,55.5
2023-05-23T22:14:21.574Z,55.5
2023-05-23T22:19:29.153Z,55.5
2023-05-23T22:24:28.630Z,55.3
2023-05-23T22:29:31.831Z,55.3
2023-05-23T22:34:31.834Z,55.4
2023-05-23T22:39:32.421Z,55.4
2023-05-23T22:44:32.922Z,55.3
2023-05-23T22:49:36.278Z,55.3
2023-05-23T22:54:36.433Z,55.1
2023-05-23T22:59:36.775Z,55.1
2023-05-23T23:04:37.357Z,55.1
2023-05-23T23:09:37.937Z,54.9
2023-05-23T23:14:38.777Z,55
2023-05-23T23:19:39.849Z,54.9
2023-05-23T23:24:42.955Z,54.9
2023-05-23T23:29:42.851Z,54.8
2023-05-23T23:34:43.280Z,54.9
2023-05-23T23:39:42.637Z,55
2023-05-23T23:44:43.263Z,54.8
2023-05-23T23:49:43.550Z,55
2023-05-23T23:54:44.424Z,54.9
2023-05-23T23:59:47.520Z,54.8
